Time;durP1;ratioP1;P1;durP2;ratioP2;P2;SDS_P1;SDS_P2;PMS_P1;PMS_P2;Temp;Humidity;BMP_temperature;BMP_pressure;BME280_temperature;BME280_humidity;BME280_pressure;Samples;Min_cycle;Max_cycle;Signal;HPM_P1;HPM_P2
2023/01/14 00:01:59;;;;;;;;;;;;;;;5.71;100.00;101112.22;4901224;28;19930;-76
2023/01/14 00:04:25;;;;;;;;;;;;;;;5.70;100.00;101105.25;4904902;29;19935;-76
2023/01/14 00:06:50;;;;;;;;;;;;;;;5.69;100.00;101094.78;4908980;29;19930;-76
2023/01/14 00:09:15;;;;;;;;;;;;;;;5.67;100.00;101104.44;4920088;28;19930;-78
2023/01/14 00:11:48;;;;;;;;;;;;;;;5.66;100.00;101103.56;4918044;28;20045;-77
2023/01/14 00:14:15;;;;;;;;;;;;;;;5.64;100.00;101104.50;4920233;28;19933;-77
2023/01/14 00:16:41;;;;;;;;;;;;;;;5.62;100.00;101106.31;4907988;28;19931;-77
2023/01/14 00:19:06;;;;;;;;;;;;;;;5.63;100.00;101105.41;4919643;28;19986;-76
2023/01/14 00:21:32;;;;;;;;;;;;;;;5.63;100.00;101110.66;4918421;28;19926;-76
2023/01/14 00:23:57;;;;;;;;;;;;;;;5.63;100.00;101115.91;4906098;28;20465;-76
2023/01/14 00:26:24;;;;;;;;;;;;;;;5.64;100.00;101113.25;4906350;29;19935;-77
2023/01/14 00:28:50;;;;;;;;;;;;;;;5.65;100.00;101108.84;4907825;29;19934;-77
2023/01/14 00:31:17;;;;;;;;;;;;;;;5.66;100.00;101110.59;4916924;28;19930;-77
2023/01/14 00:33:42;;;;;;;;;;;;;;;5.66;100.00;101118.50;4921168;28;19938;-76
2023/01/14 00:36:09;;;;;;;;;;;;;;;5.66;100.00;101121.13;4904347;28;21199;-76
2023/01/14 00:38:35;;;;;;;;;;;;;;;5.65;100.00;101117.63;4906155;29;19933;-76
2023/01/14 00:41:10;;;;;;;;;;;;;;;5.65;100.00;101120.25;4903511;29;21565;-76
2023/01/14 00:43:36;;;;;;;;;;;;;;;5.65;100.00;101130.75;4903789;28;19931;-76
2023/01/14 00:46:02;;;;;;;;;;;;;;;5.66;100.00;101119.34;4904903;29;19931;-76
2023/01/14 00:48:28;;;;;;;;;;;;;;;5.66;100.00;101115.88;4916637;28;20464;-76
2023/01/14 00:50:53;;;;;;;;;;;;;;;5.66;100.00;101121.13;4902260;29;20660;-75
2023/01/14 00:53:19;;;;;;;;;;;;;;;5.66;100.00;101115.88;4903248;28;19927;-76
2023/01/14 00:55:44;;;;;;;;;;;;;;;5.64;100.00;101122.88;4907486;29;19927;-76
2023/01/14 00:58:09;;;;;;;;;;;;;;;5.64;100.00;101130.78;4920955;28;20387;-76
2023/01/14 01:00:35;;;;;;;;;;;;;;;5.64;100.00;101125.50;4905254;28;19927;-76
2023/01/14 01:03:00;;;;;;;;;;;;;;;5.65;100.00;101135.13;4906356;29;20169;-76
2023/01/14 01:05:26;;;;;;;;;;;;;;;5.67;100.00;101141.22;4902836;29;20025;-76
2023/01/14 01:07:51;;;;;;;;;;;;;;;5.67;100.00;101136.81;4922775;28;19926;-76
2023/01/14 01:10:17;;;;;;;;;;;;;;;5.67;100.00;101133.34;4921423;28;20005;-76
2023/01/14 01:12:42;;;;;;;;;;;;;;;5.65;100.00;101128.13;4905544;29;19977;-76
2023/01/14 01:15:08;;;;;;;;;;;;;;;5.66;100.00;101142.13;4901146;29;19923;-76
2023/01/14 01:17:33;;;;;;;;;;;;;;;5.66;100.00;101129.84;4907830;29;19931;-76
2023/01/14 01:19:59;;;;;;;;;;;;;;;5.66;100.00;101132.47;4904315;29;19930;-76
2023/01/14 01:22:28;;;;;;;;;;;;;;;5.68;100.00;101129.81;4885858;29;20346;-76
2023/01/14 01:24:53;;;;;;;;;;;;;;;5.69;100.00;101124.53;4906359;28;20492;-76
2023/01/14 01:27:19;;;;;;;;;;;;;;;5.72;100.00;101128.84;4890350;29;21458;-76
2023/01/14 01:29:44;;;;;;;;;;;;;;;5.73;100.00;101130.59;4903820;28;19935;-75
2023/01/14 01:32:09;;;;;;;;;;;;;;;5.73;100.00;101122.72;4901343;29;19935;-76
2023/01/14 01:34:38;;;;;;;;;;;;;;;5.73;100.00;101121.84;4908904;29;19935;-76
2023/01/14 01:37:03;;;;;;;;;;;;;;;5.75;100.00;101133.19;4888621;29;20033;-76
2023/01/14 01:39:29;;;;;;;;;;;;;;;5.74;100.00;101128.81;4906807;29;19931;-76
2023/01/14 01:41:54;;;;;;;;;;;;;;;5.73;100.00;101125.34;4904364;29;20632;-76
2023/01/14 01:44:21;;;;;;;;;;;;;;;5.71;100.00;101132.38;4899971;28;19938;-76
2023/01/14 01:46:47;;;;;;;;;;;;;;;5.70;100.00;101133.28;4904713;29;19926;-76
2023/01/14 01:49:24;;;;;;;;;;;;;;;5.70;100.00;101143.78;4904512;29;19937;-76
2023/01/14 01:51:55;;;;;;;;;;;;;;;5.69;100.00;101134.19;4901036;28;20132;-76
2023/01/14 01:54:24;;;;;;;;;;;;;;;5.70;100.00;101141.16;4905757;29;20418;-76
2023/01/14 01:56:50;;;;;;;;;;;;;;;5.68;100.00;101135.94;4904365;29;19954;-75
2023/01/14 01:59:17;;;;;;;;;;;;;;;5.67;100.00;101134.19;4886806;29;20355;-76
2023/01/14 02:01:42;;;;;;;;;;;;;;;5.67;100.00;101141.22;4904431;29;20354;-76
2023/01/14 02:04:11;;;;;;;;;;;;;;;5.65;100.00;101153.50;4904937;29;19934;-75
2023/01/14 02:06:37;;;;;;;;;;;;;;;5.63;100.00;101129.03;4888494;29;19965;-75
2023/01/14 02:09:03;;;;;;;;;;;;;;;5.62;100.00;101132.56;4907371;29;19934;-75
2023/01/14 02:11:37;;;;;;;;;;;;;;;5.61;100.00;101133.47;4903347;29;19941;-76
2023/01/14 02:14:15;;;;;;;;;;;;;;;5.63;100.00;101132.56;4907000;29;19930;-76
2023/01/14 02:16:40;;;;;;;;;;;;;;;5.61;100.00;101128.22;4903949;28;20460;-76
2023/01/14 02:19:09;;;;;;;;;;;;;;;5.57;100.00;101125.63;4903721;29;19930;-76
2023/01/14 02:21:36;;;;;;;;;;;;;;;5.54;100.00;101115.22;4899884;29;20176;-76
2023/01/14 02:24:17;;;;;;;;;;;;;;;5.49;100.00;101117.06;4901805;29;20020;-75
2023/01/14 02:26:48;;;;;;;;;;;;;;;5.43;100.00;101104.91;4907404;29;20009;-75
2023/01/14 02:29:26;;;;;;;;;;;;;;;5.45;100.00;101107.50;4903359;29;20138;-75
2023/01/14 02:32:10;;;;;;;;;;;;;;;5.43;100.00;101110.16;4902087;29;20017;-77
2023/01/14 02:34:43;;;;;;;;;;;;;;;5.44;100.00;101111.00;4900934;28;19919;-76
2023/01/14 02:37:10;;;;;;;;;;;;;;;5.40;100.00;101104.13;4900639;28;19927;-76
2023/01/14 02:39:36;;;;;;;;;;;;;;;5.40;100.00;101104.13;4903536;29;19927;-76
2023/01/14 02:45:24;;;;;;;;;;;;;;;5.36;100.00;101108.56;4901955;29;19991;-76
2023/01/14 02:47:49;;;;;;;;;;;;;;;5.37;100.00;101101.53;4905630;29;19927;-76
2023/01/14 02:50:15;;;;;;;;;;;;;;;5.34;100.00;101093.72;4907494;29;19981;-76
2023/01/14 02:52:40;;;;;;;;;;;;;;;5.29;100.00;101089.41;4904987;29;19985;-76
2023/01/14 02:55:27;;;;;;;;;;;;;;;5.23;100.00;101080.81;4906809;29;19949;-76
2023/01/14 02:58:11;;;;;;;;;;;;;;;5.16;100.00;101080.94;4912926;29;21924;-76
2023/01/14 03:00:59;;;;;;;;;;;;;;;5.10;100.00;101093.28;4890938;29;20483;-75
2023/01/14 03:03:28;;;;;;;;;;;;;;;5.05;100.00;101076.78;4881099;29;19989;-76
2023/01/14 03:05:59;;;;;;;;;;;;;;;4.99;100.00;101073.38;4908742;29;20469;-77
2023/01/14 03:08:24;;;;;;;;;;;;;;;4.95;100.00;101071.69;4909651;28;20469;-76
2023/01/14 03:11:00;;;;;;;;;;;;;;;4.88;100.00;101064.81;4892171;29;19966;-76
2023/01/14 03:13:32;;;;;;;;;;;;;;;4.82;100.00;101059.69;4909296;29;19931;-76
2023/01/14 03:16:15;;;;;;;;;;;;;;;4.78;100.00;101065.91;4905773;29;19938;-76
2023/01/14 03:18:45;;;;;;;;;;;;;;;4.72;100.00;101061.59;4910963;29;20076;-76
2023/01/14 03:21:31;;;;;;;;;;;;;;;4.66;100.00;101067.81;4915444;28;19927;-76
2023/01/14 03:24:02;;;;;;;;;;;;;;;4.60;100.00;101066.19;4910223;29;20115;-76
2023/01/14 03:26:27;;;;;;;;;;;;;;;4.57;100.00;101070.63;4928557;28;21512;-76
2023/01/14 03:28:53;;;;;;;;;;;;;;;4.53;100.00;101069.78;4928958;28;19938;-76
2023/01/14 03:31:21;;;;;;;;;;;;;;;4.48;100.00;101063.75;4926976;28;19986;-76
2023/01/14 03:33:56;;;;;;;;;;;;;;;4.43;100.00;101049.84;4926001;28;19935;-76
2023/01/14 03:36:21;;;;;;;;;;;;;;;4.41;100.00;101049.88;4927411;28;19931;-76
2023/01/14 03:38:48;;;;;;;;;;;;;;;4.38;100.00;101049.94;4927112;28;19937;-76
2023/01/14 03:42:17;;;;;;;;;;;;;;;4.35;100.00;101049.97;4925788;28;20325;-76
2023/01/14 03:44:00;;;;;;;;;;;;;;;4.32;100.00;101050.03;4922885;28;20393;-76
2023/01/14 03:46:25;;;;;;;;;;;;;;;4.29;100.00;101050.06;4912941;29;19926;-76
2023/01/14 03:48:51;;;;;;;;;;;;;;;4.29;100.00;101052.69;4909933;29;20461;-76
2023/01/14 03:51:22;;;;;;;;;;;;;;;4.27;100.00;101051.84;4907223;29;19970;-76
2023/01/14 03:53:48;;;;;;;;;;;;;;;4.26;100.00;101044.88;4908107;29;20430;-76
2023/01/14 03:56:24;;;;;;;;;;;;;;;4.24;100.00;101036.19;4910896;29;19937;-77
2023/01/14 03:58:53;;;;;;;;;;;;;;;4.23;100.00;101026.59;4924716;28;19931;-76
2023/01/14 04:01:28;;;;;;;;;;;;;;;4.20;100.00;101028.34;4921101;28;19941;-75
2023/01/14 04:03:53;;;;;;;;;;;;;;;4.17;100.00;101025.81;4903118;29;19953;-76
2023/01/14 04:06:19;;;;;;;;;;;;;;;4.17;100.00;101022.31;4905780;28;19931;-76
2023/01/14 04:08:44;;;;;;;;;;;;;;;4.18;100.00;101024.03;4906384;29;20417;-76
2023/01/14 04:11:10;;;;;;;;;;;;;;;4.16;100.00;101018.84;4926087;28;19934;-75
2023/01/14 04:16:20;;;;;;;;;;;;;;;4.17;100.00;101023.19;4907742;28;20002;-76
2023/01/14 04:18:45;;;;;;;;;;;;;;;4.18;100.00;101011.78;4910284;29;19926;-76
2023/01/14 04:21:11;;;;;;;;;;;;;;;4.18;100.00;101009.19;4918615;28;21703;-76
2023/01/14 04:23:36;;;;;;;;;;;;;;;4.19;100.00;101010.91;4904473;28;20066;-76
2023/01/14 04:26:02;;;;;;;;;;;;;;;4.21;100.00;101018.75;4907340;29;19923;-76
2023/01/14 04:28:27;;;;;;;;;;;;;;;4.25;100.00;101011.69;4905661;29;20030;-76
2023/01/14 04:30:53;;;;;;;;;;;;;;;4.27;100.00;101004.66;4905115;29;20171;-76
2023/01/14 04:33:18;;;;;;;;;;;;;;;4.30;100.00;101000.25;4918345;28;19931;-76
2023/01/14 04:35:48;;;;;;;;;;;;;;;4.32;100.00;100994.97;4905643;29;19934;-76
2023/01/14 04:38:14;;;;;;;;;;;;;;;4.32;100.00;100987.97;4904807;29;20005;-76
2023/01/14 04:40:40;;;;;;;;;;;;;;;4.34;100.00;100987.94;4901536;29;19990;-76
2023/01/14 04:43:05;;;;;;;;;;;;;;;4.39;100.00;100987.88;4902120;29;20306;-76
2023/01/14 04:45:30;;;;;;;;;;;;;;;4.41;100.00;100991.34;4906367;29;20058;-76
2023/01/14 04:47:56;;;;;;;;;;;;;;;4.40;100.00;100987.00;4904961;29;19935;-76
2023/01/14 04:50:43;;;;;;;;;;;;;;;4.39;100.00;100978.25;4907204;29;19937;-76
2023/01/14 04:53:13;;;;;;;;;;;;;;;4.35;100.00;100969.56;4914228;28;19990;-76
2023/01/14 04:55:39;;;;;;;;;;;;;;;4.32;100.00;100955.66;4923302;28;21405;-76
2023/01/14 04:58:05;;;;;;;;;;;;;;;4.30;100.00;100949.59;4921482;28;19934;-74
2023/01/14 05:00:30;;;;;;;;;;;;;;;4.27;100.00;100941.75;4908460;29;20256;-75
2023/01/14 05:02:56;;;;;;;;;;;;;;;4.25;100.00;100927.81;4905747;29;20438;-76
2023/01/14 05:05:21;;;;;;;;;;;;;;;4.22;100.00;100936.59;4906422;29;19931;-75
2023/01/14 05:07:46;;;;;;;;;;;;;;;4.21;100.00;100927.88;4904767;29;19942;-75
2023/01/14 05:10:12;;;;;;;;;;;;;;;4.21;100.00;100921.78;4921045;28;19931;-75
2023/01/14 05:12:37;;;;;;;;;;;;;;;4.20;100.00;100914.81;4924650;28;20461;-75
2023/01/14 05:15:03;;;;;;;;;;;;;;;4.19;100.00;100923.53;4906363;29;20262;-75
2023/01/14 05:17:29;;;;;;;;;;;;;;;4.18;100.00;100917.44;4920900;28;20534;-75
2023/01/14 05:19:54;;;;;;;;;;;;;;;4.17;100.00;100910.47;4904409;29;19931;-75
2023/01/14 05:22:19;;;;;;;;;;;;;;;4.16;100.00;100907.88;4906212;29;19998;-75
2023/01/14 05:24:45;;;;;;;;;;;;;;;4.15;100.00;100914.88;4905463;29;20462;-75
2023/01/14 05:27:10;;;;;;;;;;;;;;;4.16;100.00;100903.53;4906277;29;19922;-75
2023/01/14 05:29:38;;;;;;;;;;;;;;;4.16;100.00;100898.28;4870532;29;19958;-76
2023/01/14 05:32:03;;;;;;;;;;;;;;;4.16;100.00;100887.78;4905154;29;20072;-76
2023/01/14 05:34:30;;;;;;;;;;;;;;;4.17;100.00;100884.28;4902760;29;19941;-76
2023/01/14 05:36:56;;;;;;;;;;;;;;;4.17;100.00;100881.66;4903729;28;19990;-76
2023/01/14 05:39:22;;;;;;;;;;;;;;;4.16;100.00;100873.81;4902518;29;19934;-76
2023/01/14 05:47:16;;;;;;;;;;;;;;;4.13;100.00;100858.16;4907060;29;19942;-75
2023/01/14 05:49:41;;;;;;;;;;;;;;;4.14;100.00;100858.13;4908692;29;19938;-75
2023/01/14 05:52:06;;;;;;;;;;;;;;;4.14;100.00;100841.53;4906686;29;19935;-75
2023/01/14 05:54:32;;;;;;;;;;;;;;;4.14;100.00;100837.16;4905671;29;20313;-77
2023/01/14 05:56:57;;;;;;;;;;;;;;;4.16;100.00;100834.50;4906027;29;20465;-76
2023/01/14 05:59:23;;;;;;;;;;;;;;;4.17;100.00;100820.50;4909207;29;20402;-76
2023/01/14 06:07:17;;;;;;;;;;;;;;;4.21;100.00;100815.16;4904079;29;19938;-76
2023/01/14 06:09:42;;;;;;;;;;;;;;;4.23;100.00;100798.56;4904089;29;19966;-76
2023/01/14 06:12:07;;;;;;;;;;;;;;;4.23;100.00;100798.56;4882681;29;19935;-76
2023/01/14 06:14:33;;;;;;;;;;;;;;;4.23;100.00;100788.94;4903652;29;20395;-76
2023/01/14 06:16:59;;;;;;;;;;;;;;;4.24;100.00;100781.94;4903298;28;20047;-76
2023/01/14 06:19:24;;;;;;;;;;;;;;;4.25;100.00;100773.19;4885928;29;19935;-76
2023/01/14 06:21:50;;;;;;;;;;;;;;;4.25;100.00;100765.34;4898177;29;19927;-74
2023/01/14 06:24:15;;;;;;;;;;;;;;;4.26;100.00;100761.81;4897681;29;19935;-74
2023/01/14 06:26:41;;;;;;;;;;;;;;;4.24;100.00;100767.06;4904358;29;20343;-74
2023/01/14 06:29:07;;;;;;;;;;;;;;;4.24;100.00;100753.13;4908748;29;20330;-74
2023/01/14 06:31:33;;;;;;;;;;;;;;;4.22;100.00;100755.78;4904061;29;19942;-74
2023/01/14 06:34:01;;;;;;;;;;;;;;;4.23;100.00;100743.53;4900849;29;19938;-74
2023/01/14 06:36:27;;;;;;;;;;;;;;;4.22;100.00;100750.53;4897664;29;20077;-76
2023/01/14 06:38:52;;;;;;;;;;;;;;;4.21;100.00;100741.78;4900660;29;19989;-74
2023/01/14 06:41:18;;;;;;;;;;;;;;;4.21;100.00;100726.06;4902812;29;20381;-74
2023/01/14 06:43:44;;;;;;;;;;;;;;;4.24;100.00;100729.53;4903822;29;19931;-74
2023/01/14 06:46:10;;;;;;;;;;;;;;;4.24;100.00;100724.28;4903811;29;19935;-74
2023/01/14 06:48:35;;;;;;;;;;;;;;;4.25;100.00;100715.53;4886484;29;19931;-74
2023/01/14 06:51:05;;;;;;;;;;;;;;;4.26;100.00;100705.03;4900881;29;20410;-75
2023/01/14 06:53:30;;;;;;;;;;;;;;;4.28;100.00;100697.97;4884151;29;19931;-74
2023/01/14 06:55:59;;;;;;;;;;;;;;;4.29;100.00;100696.22;4903934;29;19974;-74
2023/01/14 06:58:24;;;;;;;;;;;;;;;4.29;100.00;100691.84;4906855;29;19931;-74
2023/01/14 07:00:53;;;;;;;;;;;;;;;4.30;100.00;100679.63;4899845;29;19935;-74
2023/01/14 07:03:19;;;;;;;;;;;;;;;4.31;100.00;100678.72;4903758;29;19927;-75
2023/01/14 07:05:45;;;;;;;;;;;;;;;4.32;100.00;100672.56;4883533;29;20089;-73
2023/01/14 07:08:10;;;;;;;;;;;;;;;4.33;100.00;100669.03;4906147;29;19934;-73
2023/01/14 07:10:35;;;;;;;;;;;;;;;4.33;100.00;100674.28;4902052;29;19935;-74
2023/01/14 07:13:01;;;;;;;;;;;;;;;4.33;100.00;100669.91;4886453;29;20390;-75
2023/01/14 07:15:26;;;;;;;;;;;;;;;4.35;100.00;100667.25;4884025;29;19939;-74
2023/01/14 07:17:52;;;;;;;;;;;;;;;4.37;100.00;100669.84;4901450;28;20458;-75
2023/01/14 07:20:17;;;;;;;;;;;;;;;4.38;100.00;100661.94;4906300;29;20031;-75
2023/01/14 07:22:43;;;;;;;;;;;;;;;4.39;100.00;100652.31;4901993;29;19938;-74
2023/01/14 07:25:09;;;;;;;;;;;;;;;4.40;100.00;100649.66;4898601;29;20334;-75
2023/01/14 07:27:34;;;;;;;;;;;;;;;4.41;100.00;100645.28;4900981;29;19938;-75
2023/01/14 07:30:00;;;;;;;;;;;;;;;4.41;100.00;100638.28;4904146;29;19942;-75
2023/01/14 07:32:25;;;;;;;;;;;;;;;4.41;100.00;100630.41;4900678;29;19934;-75
2023/01/14 07:34:51;;;;;;;;;;;;;;;4.43;100.00;100618.16;4900859;28;19922;-75
2023/01/14 07:37:16;;;;;;;;;;;;;;;4.45;100.00;100615.47;4900352;29;19962;-75
2023/01/14 07:39:41;;;;;;;;;;;;;;;4.45;100.00;100600.59;4902912;29;20091;-75
2023/01/14 07:42:07;;;;;;;;;;;;;;;4.48;100.00;100591.81;4904062;29;19927;-76
2023/01/14 07:44:32;;;;;;;;;;;;;;;4.49;100.00;100581.25;4907242;29;20029;-76
2023/01/14 07:46:58;;;;;;;;;;;;;;;4.51;100.00;100577.78;4907254;29;20393;-75
2023/01/14 07:49:24;;;;;;;;;;;;;;;4.52;100.00;100577.72;4909405;29;20422;-75
2023/01/14 07:51:49;;;;;;;;;;;;;;;4.52;100.00;100566.38;4888388;29;20398;-75
2023/01/14 07:54:15;;;;;;;;;;;;;;;4.52;100.00;100554.13;4906473;29;19927;-76
2023/01/14 07:56:41;;;;;;;;;;;;;;;4.53;100.00;100549.75;4904542;29;20174;-74
2023/01/14 07:59:06;;;;;;;;;;;;;;;4.53;100.00;100544.50;4905261;29;20228;-75
2023/01/14 08:01:32;;;;;;;;;;;;;;;4.53;100.00;100542.72;4909049;29;19931;-74
2023/01/14 08:03:57;;;;;;;;;;;;;;;4.55;100.00;100532.19;4904973;29;20165;-75
2023/01/14 08:06:23;;;;;;;;;;;;;;;4.52;100.00;100512.16;4908286;29;20306;-74
2023/01/14 08:08:48;;;;;;;;;;;;;;;4.53;100.00;100513.88;4909402;29;19942;-75
2023/01/14 08:11:13;;;;;;;;;;;;;;;4.53;100.00;100505.16;4908752;29;19986;-75
2023/01/14 08:13:39;;;;;;;;;;;;;;;4.52;100.00;100501.69;4910335;29;20358;-76
2023/01/14 08:16:05;;;;;;;;;;;;;;;4.53;100.00;100499.94;4891000;29;20275;-76
2023/01/14 08:18:34;;;;;;;;;;;;;;;4.52;100.00;100485.09;4890210;29;20203;-76
2023/01/14 08:21:00;;;;;;;;;;;;;;;4.52;100.00;100485.94;4907547;29;21475;-76
2023/01/14 08:23:25;;;;;;;;;;;;;;;4.52;100.00;100469.38;4908085;29;20586;-76
2023/01/14 08:25:51;;;;;;;;;;;;;;;4.51;100.00;100458.00;4909804;29;20287;-77
2023/01/14 08:28:16;;;;;;;;;;;;;;;4.50;100.00;100458.91;4906577;29;19931;-76
2023/01/14 08:30:42;;;;;;;;;;;;;;;4.51;100.00;100451.91;4904810;29;20284;-77
2023/01/14 08:33:07;;;;;;;;;;;;;;;4.52;100.00;100437.91;4904975;29;19931;-77
2023/01/14 08:35:33;;;;;;;;;;;;;;;4.51;100.00;100431.78;4888777;29;20164;-76
2023/01/14 08:37:58;;;;;;;;;;;;;;;4.51;100.00;100418.69;4908944;29;20658;-76
2023/01/14 08:40:24;;;;;;;;;;;;;;;4.52;100.00;100422.19;4906048;29;19938;-77
2023/01/14 08:42:49;;;;;;;;;;;;;;;4.52;100.00;100412.53;4910011;29;19934;-77
2023/01/14 08:45:15;;;;;;;;;;;;;;;4.52;100.00;100403.81;4909703;29;19942;-76
2023/01/14 08:47:40;;;;;;;;;;;;;;;4.53;100.00;100382.78;4908785;29;20379;-75
2023/01/14 08:50:05;;;;;;;;;;;;;;;4.54;100.00;100374.03;4909660;29;19942;-74
2023/01/14 08:52:31;;;;;;;;;;;;;;;4.54;100.00;100375.78;4898873;29;20281;-75
2023/01/14 08:54:56;;;;;;;;;;;;;;;4.54;100.00;100373.16;4896942;29;19965;-75
2023/01/14 08:57:22;;;;;;;;;;;;;;;4.54;100.00;100367.94;4901041;29;19931;-75
2023/01/14 08:59:48;;;;;;;;;;;;;;;4.55;100.00;100354.78;4905598;29;19937;-76
2023/01/14 09:02:14;;;;;;;;;;;;;;;4.55;100.00;100351.28;4908226;29;19927;-76
2023/01/14 09:04:40;;;;;;;;;;;;;;;4.55;100.00;100349.53;4888362;29;19934;-76
2023/01/14 09:18:02;;;;;;;;;;;;;;;4.58;100.00;100294.38;4909001;29;21011;-76
2023/01/14 09:20:29;;;;;;;;;;;;;;;4.59;100.00;100290.84;4906768;29;20380;-76
2023/01/14 09:22:54;;;;;;;;;;;;;;;4.59;100.00;100272.50;4924781;29;20379;-75
2023/01/14 09:25:20;;;;;;;;;;;;;;;4.59;100.00;100263.78;4922790;29;19955;-76
2023/01/14 09:27:45;;;;;;;;;;;;;;;4.60;100.00;100247.13;4917048;29;20291;-76
2023/01/14 09:30:11;;;;;;;;;;;;;;;4.61;100.00;100238.38;4915175;29;19930;-76
2023/01/14 09:32:37;;;;;;;;;;;;;;;4.62;100.00;100250.56;4877353;29;19968;-77
2023/01/14 09:35:03;;;;;;;;;;;;;;;4.62;100.00;100240.94;4874853;29;20056;-78
2023/01/14 09:37:30;;;;;;;;;;;;;;;4.64;100.00;100227.81;4888024;29;20597;-76
2023/01/14 09:39:55;;;;;;;;;;;;;;;4.64;100.00;100217.31;4886569;29;19997;-77
2023/01/14 09:42:21;;;;;;;;;;;;;;;4.66;100.00;100209.38;4888486;29;19935;-77
2023/01/14 09:44:46;;;;;;;;;;;;;;;4.67;100.00;100196.22;4887272;29;20663;-76
2023/01/14 09:47:17;;;;;;;;;;;;;;;4.68;100.00;100195.31;4886695;29;20051;-78
2023/01/14 09:49:42;;;;;;;;;;;;;;;4.70;100.00;100188.28;4885804;29;19928;-76
2023/01/14 09:52:20;;;;;;;;;;;;;;;4.72;100.00;100188.22;4872829;29;19927;-77
2023/01/14 09:54:48;;;;;;;;;;;;;;;4.73;100.00;100180.31;4888320;29;19970;-76
2023/01/14 09:57:19;;;;;;;;;;;;;;;4.75;100.00;100165.38;4886479;29;19934;-81
2023/01/14 10:00:08;;;;;;;;;;;;;;;4.78;100.00;100151.31;4886568;29;19927;-77
2023/01/14 10:02:35;;;;;;;;;;;;;;;4.81;100.00;100134.59;4851315;29;19946;-78
2023/01/14 10:05:22;;;;;;;;;;;;;;;4.83;100.00;100124.91;4868572;29;20161;-78
2023/01/14 10:07:48;;;;;;;;;;;;;;;4.85;100.00;100107.38;4868532;29;19978;-77
2023/01/14 10:10:24;;;;;;;;;;;;;;;4.88;100.00;100109.88;4885099;29;20612;-77
2023/01/14 10:12:50;;;;;;;;;;;;;;;4.90;100.00;100097.56;4886264;29;20038;-77
2023/01/14 10:15:35;;;;;;;;;;;;;;;4.92;100.00;100089.66;4872757;29;19927;-77
2023/01/14 10:18:19;;;;;;;;;;;;;;;4.96;100.00;100075.53;4885144;29;19937;-77
2023/01/14 10:20:48;;;;;;;;;;;;;;;4.98;100.00;100073.72;4888864;29;20025;-77
2023/01/14 10:23:14;;;;;;;;;;;;;;;5.00;100.00;100051.75;4887074;29;19985;-77
2023/01/14 10:25:41;;;;;;;;;;;;;;;5.03;100.00;100030.66;4884232;29;20018;-78
2023/01/14 10:28:08;;;;;;;;;;;;;;;5.08;100.00;100009.53;4888834;29;19987;-76
2023/01/14 10:30:34;;;;;;;;;;;;;;;5.12;100.00;99994.53;4889997;29;19927;-77
2023/01/14 10:33:01;;;;;;;;;;;;;;;5.16;100.00;99981.22;4891195;29;20379;-77
2023/01/14 10:35:37;;;;;;;;;;;;;;;5.20;100.00;99968.84;4890606;29;19941;-77
2023/01/14 10:38:02;;;;;;;;;;;;;;;5.24;100.00;99959.09;4869440;29;19927;-77
2023/01/14 10:40:28;;;;;;;;;;;;;;;5.28;100.00;99953.66;4887678;29;19934;-76
2023/01/14 10:42:54;;;;;;;;;;;;;;;5.30;100.00;99946.56;4881059;29;19962;-78
2023/01/14 10:45:20;;;;;;;;;;;;;;;5.33;100.00;99924.59;4883914;29;19937;-77
2023/01/14 10:47:45;;;;;;;;;;;;;;;5.35;100.00;99922.81;4888675;29;19931;-77
2023/01/14 10:50:16;;;;;;;;;;;;;;;5.36;100.00;99914.00;4887263;29;20034;-78
2023/01/14 10:52:43;;;;;;;;;;;;;;;5.39;100.00;99905.16;4881405;29;19928;-77
2023/01/14 10:55:15;;;;;;;;;;;;;;;5.39;100.00;99895.50;4886662;29;19927;-78
2023/01/14 10:57:50;;;;;;;;;;;;;;;5.41;100.00;99882.31;4888434;29;19927;-77
2023/01/14 11:00:22;;;;;;;;;;;;;;;5.41;100.00;99864.78;4871996;29;20290;-80
2023/01/14 11:02:50;;;;;;;;;;;;;;;5.43;100.00;99851.59;4886127;29;20077;-80
2023/01/14 11:05:32;;;;;;;;;;;;;;;5.45;100.00;99834.00;4890434;29;19933;-79
2023/01/14 11:08:13;;;;;;;;;;;;;;;5.47;100.00;99808.56;4892849;29;19931;-79
2023/01/14 11:10:38;;;;;;;;;;;;;;;5.49;100.00;99801.47;4893088;29;19927;-79
2023/01/14 11:13:34;;;;;;;;;;;;;;;5.51;100.00;99790.91;4892059;29;19999;-78
2023/01/14 11:15:59;;;;;;;;;;;;;;;5.53;100.00;99768.94;4877431;29;19927;-78
2023/01/14 11:18:26;;;;;;;;;;;;;;;5.55;100.00;99759.22;4896558;29;19949;-79
2023/01/14 11:21:05;;;;;;;;;;;;;;;5.59;100.00;99744.19;4897292;29;19946;-79
2023/01/14 11:23:35;;;;;;;;;;;;;;;5.60;100.00;99734.56;4894724;29;20410;-79
2023/01/14 11:26:02;;;;;;;;;;;;;;;5.61;100.00;99702.13;4894699;29;20383;-78
2023/01/14 11:28:27;;;;;;;;;;;;;;;5.62;100.00;99699.41;4896826;29;19938;-79
2023/01/14 11:30:54;;;;;;;;;;;;;;;5.64;100.00;99699.34;4897888;29;19935;-78
2023/01/14 11:33:21;;;;;;;;;;;;;;;5.65;100.00;99686.16;4895612;29;19936;-79
2023/01/14 11:35:51;;;;;;;;;;;;;;;5.66;100.00;99690.47;4886399;29;20443;-78
2023/01/14 11:38:19;;;;;;;;;;;;;;;5.69;100.00;99682.47;4897422;29;19926;-78
2023/01/14 11:43:32;;;;;;;;;;;;;;;5.75;100.00;99664.72;4882229;29;20407;-78
2023/01/14 11:46:10;;;;;;;;;;;;;;;5.76;100.00;99635.78;4896703;29;19931;-78
2023/01/14 11:48:35;;;;;;;;;;;;;;;5.78;100.00;99620.78;4896223;29;19927;-78
2023/01/14 11:51:05;;;;;;;;;;;;;;;5.82;100.00;99611.88;4896478;29;19954;-77
2023/01/14 11:53:45;;;;;;;;;;;;;;;5.85;100.00;99589.88;4896403;29;19986;-77
2023/01/14 11:56:14;;;;;;;;;;;;;;;5.87;100.00;99584.53;4881064;29;20651;-78
2023/01/14 11:58:40;;;;;;;;;;;;;;;5.90;100.00;99587.88;4897633;29;20022;-78
2023/01/14 12:01:11;;;;;;;;;;;;;;;5.95;100.00;99582.41;4896731;29;19949;-78
2023/01/14 12:03:37;;;;;;;;;;;;;;;5.98;100.00;99571.75;4894778;29;20088;-78
2023/01/14 12:06:23;;;;;;;;;;;;;;;6.01;100.00;99553.22;4894783;29;19931;-78
2023/01/14 12:08:52;;;;;;;;;;;;;;;6.06;100.00;99538.09;4895431;29;20014;-78
2023/01/14 12:11:19;;;;;;;;;;;;;;;6.10;100.00;99542.31;4896206;29;19935;-78
2023/01/14 12:16:50;;;;;;;;;;;;;;;6.16;100.00;99528.00;4895630;29;20410;-78
2023/01/14 12:19:35;;;;;;;;;;;;;;;6.21;100.00;99527.81;4896290;29;19931;-78
2023/01/14 12:22:12;;;;;;;;;;;;;;;6.26;100.00;99515.28;4878780;29;20029;-77
2023/01/14 12:24:52;;;;;;;;;;;;;;;6.29;100.00;99507.25;4895003;29;20314;-77
2023/01/14 12:27:41;;;;;;;;;;;;;;;6.34;100.00;99499.13;4878695;29;19935;-78
2023/01/14 12:30:27;;;;;;;;;;;;;;;6.37;100.00;99485.81;4896605;29;19930;-76
2023/01/14 12:33:01;;;;;;;;;;;;;;;6.42;100.00;99467.22;4855227;29;19934;-77
2023/01/14 12:35:28;;;;;;;;;;;;;;;6.48;100.00;99469.53;4896208;29;20484;-76
2023/01/14 12:37:55;;;;;;;;;;;;;;;6.51;100.00;99459.72;4895369;29;21654;-77
2023/01/14 12:45:59;;;;;;;;;;;;;;;6.63;100.00;99429.31;4895720;29;20141;-77
2023/01/14 12:48:25;;;;;;;;;;;;;;;6.65;100.00;99424.81;4896353;29;19973;-76
2023/01/14 12:51:01;;;;;;;;;;;;;;;6.70;100.00;99423.72;4894226;29;20017;-77
2023/01/14 12:53:28;;;;;;;;;;;;;;;6.74;100.00;99418.22;4892739;29;20077;-77
2023/01/14 12:55:53;;;;;;;;;;;;;;;6.81;100.00;99387.16;4883344;29;20043;-77
2023/01/14 12:58:20;;;;;;;;;;;;;;;6.86;100.00;99400.94;4895387;29;19927;-77
2023/01/14 13:00:49;;;;;;;;;;;;;;;6.92;100.00;99379.56;4893115;29;19986;-77
2023/01/14 13:03:19;;;;;;;;;;;;;;;7.00;100.00;99383.56;4895014;29;19927;-77
2023/01/14 13:05:45;;;;;;;;;;;;;;;7.05;100.00;99376.28;4893358;29;19927;-78
2023/01/14 13:08:27;;;;;;;;;;;;;;;7.10;100.00;99360.22;4893162;29;19974;-77
2023/01/14 13:11:19;;;;;;;;;;;;;;;7.18;100.00;99365.91;4895024;29;19941;-77
2023/01/14 13:13:51;;;;;;;;;;;;;;;7.26;100.00;99354.97;4891382;29;20307;-77
2023/01/14 13:16:37;;;;;;;;;;;;;;;7.30;100.00;99335.44;4894604;29;19938;-78
2023/01/14 13:19:04;;;;;;;;;;;;;;;7.33;100.00;99320.34;4894307;29;19935;-78
2023/01/14 13:21:48;;;;;;;;;;;;;;;7.37;100.00;99326.28;4896209;29;20031;-78
2023/01/14 13:24:33;;;;;;;;;;;;;;;7.41;100.00;99325.16;4894312;29;19934;-77